createdAt,value
2022-11-22T00:00:51.458Z,99097.22
2022-11-22T00:03:19.011Z,99100.63
2022-11-22T00:05:46.484Z,99108.41
2022-11-22T00:08:14.147Z,99094.66
2022-11-22T00:10:41.638Z,99092.09
2022-11-22T00:13:09.661Z,99102.38
2022-11-22T00:15:37.979Z,99091.22
2022-11-22T00:18:05.814Z,99102.38
2022-11-22T00:20:35.683Z,99093.78
2022-11-22T00:23:03.942Z,99094.59
2022-11-22T00:25:32.094Z,99077.53
2022-11-22T00:28:00.215Z,99098.88
2022-11-22T00:30:27.722Z,99100.59
2022-11-22T00:32:55.376Z,99100.72
2022-11-22T00:35:23.155Z,99101.53
2022-11-22T00:37:50.740Z,99105.94
2022-11-22T00:40:18.352Z,99099.97
2022-11-22T00:42:45.836Z,99099.13
2022-11-22T00:45:13.424Z,99087.16
2022-11-22T00:47:40.926Z,99076.94
2022-11-22T00:50:08.753Z,99078.72
2022-11-22T00:52:36.284Z,99094.09
2022-11-22T00:55:03.854Z,99088.09
2022-11-22T00:57:31.377Z,99100.09
2022-11-22T00:59:59.214Z,99095.00
2022-11-22T01:02:26.919Z,99095.00
2022-11-22T01:04:54.601Z,99084.84
2022-11-22T01:07:22.129Z,99107.94
2022-11-22T01:09:49.675Z,99099.34
2022-11-22T01:12:17.253Z,99104.50
2022-11-22T01:14:44.699Z,99106.28
2022-11-22T01:17:12.246Z,99096.88
2022-11-22T01:19:39.795Z,99106.28
2022-11-22T01:22:07.315Z,99106.28
2022-11-22T01:24:34.827Z,99101.06
2022-11-22T01:27:02.334Z,99078.84
2022-11-22T01:29:30.361Z,99098.50
2022-11-22T01:31:58.095Z,99089.03
2022-11-22T01:34:25.630Z,99089.94
2022-11-22T01:36:53.184Z,99078.84
2022-11-22T01:39:20.774Z,99093.38
2022-11-22T01:41:48.331Z,99094.28
2022-11-22T01:44:23.401Z,99109.81
2022-11-22T01:46:58.699Z,99104.69
2022-11-22T01:49:34.874Z,99097.84
2022-11-22T01:52:10.959Z,99105.59
2022-11-22T01:54:43.018Z,99102.25
2022-11-22T01:57:17.072Z,99102.25
2022-11-22T01:59:51.948Z,99109.09
2022-11-22T02:02:19.605Z,99104.78
2022-11-22T02:04:48.229Z,99110.81
2022-11-22T02:07:23.659Z,99104.78
2022-11-22T02:09:54.099Z,99108.28
2022-11-22T02:12:29.068Z,99116.91
2022-11-22T02:14:57.494Z,99117.75
2022-11-22T02:17:28.282Z,99119.53
2022-11-22T02:19:56.550Z,99133.31
2022-11-22T02:22:45.562Z,99137.63
2022-11-22T02:25:24.799Z,99120.41
2022-11-22T02:27:52.692Z,99129.03
2022-11-22T02:30:20.544Z,99127.31
2022-11-22T02:32:48.132Z,99137.53
2022-11-22T02:35:24.647Z,99129.78
2022-11-22T02:38:32.651Z,99128.03
2022-11-22T02:41:04.285Z,99128.94
2022-11-22T02:43:35.689Z,99119.53
2022-11-22T02:46:12.623Z,99128.13
2022-11-22T02:48:44.482Z,99129.94
2022-11-22T02:51:16.743Z,99138.53
2022-11-22T02:53:45.014Z,99130.00
2022-11-22T02:56:12.744Z,99132.63
2022-11-22T02:58:40.247Z,99129.22
2022-11-22T03:01:07.877Z,99136.09
2022-11-22T03:03:35.534Z,99139.59
2022-11-22T03:06:03.419Z,99149.91
2022-11-22T03:08:31.157Z,99153.38
2022-11-22T03:10:59.737Z,99148.22
2022-11-22T03:13:27.979Z,99155.13
2022-11-22T03:15:55.597Z,99158.53
2022-11-22T03:18:23.794Z,99148.22
2022-11-22T03:20:51.250Z,99156.84
2022-11-22T03:23:18.936Z,99149.19
2022-11-22T03:25:46.417Z,99158.63
2022-11-22T03:28:13.941Z,99155.19
2022-11-22T03:30:42.652Z,99146.66
2022-11-22T03:33:10.971Z,99142.38
2022-11-22T03:35:38.825Z,99154.34
2022-11-22T03:38:07.052Z,99164.66
2022-11-22T03:40:34.918Z,99160.41
2022-11-22T03:43:03.344Z,99168.16
2022-11-22T03:45:30.987Z,99165.59
2022-11-22T03:47:58.692Z,99162.22
2022-11-22T03:50:26.801Z,99166.50
2022-11-22T03:52:54.250Z,99170.78
2022-11-22T03:55:21.771Z,99169.13
2022-11-22T03:57:49.252Z,99181.19
2022-11-22T04:00:16.984Z,99183.78
2022-11-22T04:02:44.524Z,99181.19
2022-11-22T04:05:12.096Z,99178.66
2022-11-22T04:07:39.694Z,99172.66
2022-11-22T04:10:07.725Z,99174.38
2022-11-22T04:12:35.519Z,99186.41
2022-11-22T04:15:08.463Z,99190.69
2022-11-22T04:17:41.736Z,99184.72
2022-11-22T04:20:29.296Z,99187.25
2022-11-22T04:22:58.468Z,99194.16
2022-11-22T04:25:27.319Z,99191.69
2022-11-22T04:27:55.073Z,99188.22
2022-11-22T04:30:43.100Z,99203.69
2022-11-22T04:33:10.891Z,99193.38
2022-11-22T04:35:39.428Z,99184.03
2022-11-22T04:38:07.539Z,99194.28
2022-11-22T04:40:35.581Z,99201.19
2022-11-22T04:43:20.887Z,99187.53
2022-11-22T04:45:48.865Z,99208.97
2022-11-22T04:48:19.907Z,99208.97
2022-11-22T04:51:05.161Z,99200.41
2022-11-22T04:53:32.646Z,99203.03
2022-11-22T04:56:00.425Z,99207.31
2022-11-22T04:58:27.998Z,99206.44
2022-11-22T05:00:55.592Z,99208.19
2022-11-22T05:03:23.276Z,99197.06
2022-11-22T05:05:50.764Z,99215.03
2022-11-22T05:08:18.280Z,99212.47
2022-11-22T05:10:57.891Z,99217.63
2022-11-22T05:13:33.231Z,99211.63
2022-11-22T05:16:02.567Z,99222.75
2022-11-22T05:18:30.731Z,99221.06
2022-11-22T05:21:00.145Z,99217.63
2022-11-22T05:23:45.177Z,99215.97
2022-11-22T05:26:12.671Z,99215.91
2022-11-22T05:28:40.920Z,99221.06
2022-11-22T05:31:09.377Z,99220.25
2022-11-22T05:33:38.544Z,99221.09
2022-11-22T05:36:06.985Z,99225.38
2022-11-22T05:38:37.533Z,99234.81
2022-11-22T05:41:06.604Z,99236.50
2022-11-22T05:43:34.541Z,99227.94
2022-11-22T05:46:18.338Z,99231.34
2022-11-22T05:48:49.995Z,99237.31
2022-11-22T05:51:19.835Z,99225.25
2022-11-22T05:53:47.724Z,99226.06
2022-11-22T05:56:21.739Z,99214.03
2022-11-22T05:58:49.755Z,99217.44
2022-11-22T06:01:22.970Z,99219.19
2022-11-22T06:03:51.324Z,99227.75
2022-11-22T06:06:19.523Z,99221.72
2022-11-22T06:08:48.665Z,99220.88
2022-11-22T06:11:21.328Z,99213.16
2022-11-22T06:13:49.562Z,99212.25
2022-11-22T06:16:17.418Z,99214.00
2022-11-22T06:18:45.319Z,99213.97
2022-11-22T06:21:15.628Z,99217.44
2022-11-22T06:23:43.773Z,99213.16
2022-11-22T06:26:17.851Z,99208.00
2022-11-22T06:28:46.137Z,99212.22
2022-11-22T06:31:16.263Z,99203.66
2022-11-22T06:33:45.061Z,99205.44
2022-11-22T06:36:15.638Z,99211.44
2022-11-22T06:38:44.140Z,99202.00
2022-11-22T06:41:14.407Z,99208.00
2022-11-22T06:43:48.214Z,99214.84
2022-11-22T06:46:18.721Z,99209.63
2022-11-22T06:48:46.913Z,99229.41
2022-11-22T06:51:17.567Z,99220.81
2022-11-22T06:53:48.307Z,99220.81
2022-11-22T06:56:45.876Z,99214.84
2022-11-22T06:59:13.483Z,99211.31
2022-11-22T07:01:41.091Z,99204.47
2022-11-22T07:04:08.640Z,99210.47
2022-11-22T07:06:38.503Z,99209.59
2022-11-22T07:09:09.372Z,99200.19
2022-11-22T07:11:37.628Z,99197.63
2022-11-22T07:14:08.720Z,99210.50
2022-11-22T07:16:38.099Z,99212.28
2022-11-22T07:19:06.589Z,99219.97
2022-11-22T07:21:34.127Z,99205.38
2022-11-22T07:24:01.671Z,99225.88
2022-11-22T07:26:29.185Z,99223.38
2022-11-22T07:28:56.725Z,99220.78
2022-11-22T07:31:24.170Z,99213.88
2022-11-22T07:33:51.671Z,99224.25
2022-11-22T07:36:21.626Z,99229.34
2022-11-22T07:38:50.384Z,99231.91
2022-11-22T07:41:19.456Z,99226.75
2022-11-22T07:43:47.555Z,99219.00
2022-11-22T07:46:29.572Z,99219.81
2022-11-22T07:48:57.707Z,99222.47
2022-11-22T07:51:25.475Z,99219.03
2022-11-22T07:53:53.002Z,99224.16
2022-11-22T07:56:20.580Z,99223.31
2022-11-22T07:58:48.324Z,99219.03
2022-11-22T08:01:18.564Z,99226.66
2022-11-22T08:03:46.528Z,99220.59
2022-11-22T08:06:15.313Z,99212.09
2022-11-22T08:08:42.932Z,99219.78
2022-11-22T08:11:11.242Z,99229.22
2022-11-22T08:13:38.918Z,99225.75
2022-11-22T08:16:17.588Z,99244.56
2022-11-22T08:18:49.966Z,99235.97
2022-11-22T08:21:18.085Z,99242.03
2022-11-22T08:23:46.345Z,99244.56
2022-11-22T08:26:15.822Z,99253.09
2022-11-22T08:28:44.239Z,99248.84
2022-11-22T08:31:19.023Z,99248.81
2022-11-22T08:33:47.635Z,99256.53
2022-11-22T08:36:15.398Z,99244.47
2022-11-22T08:38:43.049Z,99261.69
2022-11-22T08:41:11.334Z,99255.63
2022-11-22T08:43:39.119Z,99264.22
2022-11-22T08:46:07.149Z,99269.38
2022-11-22T08:48:36.729Z,99271.91
2022-11-22T08:51:07.649Z,99274.41
2022-11-22T08:53:37.397Z,99285.59
2022-11-22T08:56:09.580Z,99280.41
2022-11-22T08:58:37.775Z,99276.97
2022-11-22T09:01:10.478Z,99287.25
2022-11-22T09:03:38.924Z,99277.75
2022-11-22T09:09:22.103Z,99286.34
2022-11-22T09:11:44.952Z,99280.31
2022-11-22T09:14:12.992Z,99283.78
2022-11-22T09:16:40.496Z,99287.22
2022-11-22T09:19:08.001Z,99288.81
2022-11-22T09:21:35.517Z,99289.69
2022-11-22T09:24:03.052Z,99300.03
2022-11-22T09:26:31.709Z,99300.00
2022-11-22T09:28:59.226Z,99286.19
2022-11-22T09:31:26.822Z,99293.84
2022-11-22T09:33:54.338Z,99292.91
2022-11-22T09:36:26.206Z,99298.06
2022-11-22T09:38:54.332Z,99304.81
2022-11-22T09:42:05.049Z,99313.38
2022-11-22T09:44:58.169Z,99306.50
2022-11-22T09:48:09.399Z,99297.03
2022-11-22T09:50:52.749Z,99293.56
2022-11-22T09:53:49.802Z,99275.63
2022-11-22T09:56:21.106Z,99283.34
2022-11-22T09:58:53.932Z,99288.38
2022-11-22T10:01:28.313Z,99288.38
2022-11-22T10:04:04.040Z,99296.16
2022-11-22T10:06:36.819Z,99287.63
2022-11-22T10:09:29.492Z,99302.94
2022-11-22T10:12:02.907Z,99299.47
2022-11-22T10:14:53.655Z,99292.50
2022-11-22T10:17:50.152Z,99296.25
2022-11-22T10:20:25.730Z,99292.69
2022-11-22T10:22:53.919Z,99288.41
2022-11-22T10:25:23.865Z,99293.47
2022-11-22T10:28:01.685Z,99290.06
2022-11-22T10:30:36.916Z,99293.53
2022-11-22T10:33:14.115Z,99278.09
2022-11-22T10:35:57.557Z,99283.34
2022-11-22T10:38:25.856Z,99279.78
2022-11-22T10:41:16.867Z,99288.41
2022-11-22T10:44:18.277Z,99285.78
2022-11-22T10:46:59.779Z,99279.75
2022-11-22T10:49:51.929Z,99278.78
2022-11-22T10:52:41.086Z,99282.03
2022-11-22T10:55:46.055Z,99279.53
2022-11-22T10:58:30.317Z,99270.97
2022-11-22T11:01:08.102Z,99272.63
2022-11-22T11:03:40.019Z,99267.47
2022-11-22T11:12:00.919Z,99263.19
2022-11-22T11:14:39.865Z,99260.59
2022-11-22T11:17:07.959Z,99259.69
2022-11-22T11:19:40.168Z,99254.56
2022-11-22T11:22:10.783Z,99264.81
2022-11-22T11:24:41.809Z,99263.81
2022-11-22T11:27:12.018Z,99263.88
2022-11-22T11:29:44.481Z,99256.84
2022-11-22T11:32:14.726Z,99265.53
2022-11-22T11:35:09.664Z,99252.53
2022-11-22T11:37:39.690Z,99252.66
2022-11-22T11:40:28.837Z,99256.91
2022-11-22T11:43:16.798Z,99256.91
2022-11-22T11:45:44.553Z,99255.16
2022-11-22T11:48:37.526Z,99256.91
2022-11-22T11:51:16.969Z,99260.31
2022-11-22T11:53:52.530Z,99260.38
2022-11-22T11:56:33.139Z,99244.78
2022-11-22T11:59:04.512Z,99255.13
2022-11-22T12:01:38.784Z,99243.91
2022-11-22T12:04:07.697Z,99240.47
2022-11-22T12:06:35.219Z,99240.38
2022-11-22T12:09:13.913Z,99244.66
2022-11-22T12:11:50.062Z,99203.50
2022-11-22T12:14:37.745Z,99253.94
2022-11-22T12:17:27.258Z,99237.72
2022-11-22T12:20:07.102Z,99254.97
2022-11-22T12:22:50.328Z,99248.09
2022-11-22T12:25:39.906Z,99242.16
2022-11-22T12:28:21.594Z,99234.31
2022-11-22T12:31:19.749Z,99233.28
2022-11-22T12:33:58.478Z,99228.22
2022-11-22T12:36:44.645Z,99234.19
2022-11-22T12:39:23.021Z,99237.38
2022-11-22T12:41:58.066Z,99242.47
2022-11-22T12:44:37.941Z,99226.09
2022-11-22T12:47:13.234Z,99239.88
2022-11-22T12:50:04.043Z,99237.19
2022-11-22T12:52:43.291Z,99230.25
2022-11-22T12:55:22.229Z,99234.72
2022-11-22T12:58:17.725Z,99230.16
2022-11-22T13:01:00.440Z,99231.09
2022-11-22T13:03:36.737Z,99225.88
2022-11-22T13:06:08.588Z,99212.94
2022-11-22T13:08:53.253Z,99192.34
2022-11-22T13:11:40.759Z,99228.19
2022-11-22T13:14:21.285Z,99217.94
2022-11-22T13:16:51.556Z,99224.00
2022-11-22T13:19:24.460Z,99196.66
2022-11-22T13:22:17.344Z,99231.69
2022-11-22T13:25:15.990Z,99223.03
2022-11-22T13:27:50.325Z,99214.28
2022-11-22T13:30:24.217Z,99214.22
2022-11-22T13:32:54.556Z,99216.75
2022-11-22T13:35:29.078Z,99220.41
2022-11-22T13:38:03.884Z,99229.81
2022-11-22T13:40:34.975Z,99228.88
2022-11-22T13:43:46.137Z,99220.19
2022-11-22T13:46:53.860Z,99226.19
2022-11-22T13:49:41.208Z,99218.56
2022-11-22T13:52:18.261Z,99212.41
2022-11-22T13:54:48.706Z,99214.13
2022-11-22T13:57:37.658Z,99210.63
2022-11-22T14:00:41.172Z,99211.56
2022-11-22T14:03:17.623Z,99205.63
2022-11-22T14:05:50.457Z,99202.22
2022-11-22T14:08:40.306Z,99207.34
2022-11-22T14:11:15.788Z,99203.84
2022-11-22T14:13:52.380Z,99206.41
2022-11-22T14:16:41.209Z,99202.06
2022-11-22T14:19:24.397Z,99209.56
2022-11-22T14:22:08.652Z,99215.59
2022-11-22T14:25:04.468Z,99220.72
2022-11-22T14:27:50.740Z,99222.53
2022-11-22T14:30:18.507Z,99225.09
2022-11-22T14:33:05.959Z,99216.50
2022-11-22T14:35:38.678Z,99223.69
2022-11-22T14:38:29.250Z,99215.09
2022-11-22T14:41:27.781Z,99219.38
2022-11-22T14:44:22.325Z,99221.16
2022-11-22T14:46:56.582Z,99222.13
2022-11-22T14:49:40.966Z,99222.84
2022-11-22T14:52:21.513Z,99229.91
2022-11-22T14:54:53.985Z,99217.69
2022-11-22T14:57:24.677Z,99222.84
2022-11-22T15:00:03.803Z,99220.28
2022-11-22T15:03:00.452Z,99228.03
2022-11-22T15:09:10.828Z,99233.19
2022-11-22T15:09:15.368Z,99232.38
2022-11-22T15:11:45.142Z,99217.84
2022-11-22T15:14:56.972Z,99233.31
2022-11-22T15:58:13.929Z,99249.19
2022-11-22T16:00:44.821Z,99251.78
2022-11-22T16:03:23.622Z,99256.19
2022-11-22T16:06:10.195Z,99249.31
2022-11-22T16:08:39.398Z,99250.13
2022-11-22T16:11:07.425Z,99261.41
2022-11-22T16:13:37.255Z,99253.75
2022-11-22T16:16:13.839Z,99255.44
2022-11-22T16:18:43.741Z,99253.78
2022-11-22T16:21:11.341Z,99261.47
2022-11-22T16:23:45.060Z,99265.03
2022-11-22T16:26:24.704Z,99275.41
2022-11-22T16:28:54.589Z,99275.31
2022-11-22T16:31:31.321Z,99270.16
2022-11-22T16:33:59.748Z,99272.72
2022-11-22T16:36:30.696Z,99271.03
2022-11-22T16:38:58.784Z,99268.38
2022-11-22T16:41:28.794Z,99268.41
2022-11-22T16:44:00.716Z,99264.91
2022-11-22T16:46:28.424Z,99263.13
2022-11-22T16:48:57.140Z,99261.56
2022-11-22T16:51:28.426Z,99268.38
2022-11-22T16:53:59.911Z,99261.50
2022-11-22T16:56:30.622Z,99268.34
2022-11-22T16:58:59.505Z,99266.66
2022-11-22T17:01:32.604Z,99270.03
2022-11-22T17:04:02.843Z,99275.25
2022-11-22T17:06:32.515Z,99275.25
2022-11-22T17:09:01.153Z,99283.81
2022-11-22T17:11:32.013Z,99273.50
2022-11-22T17:14:01.045Z,99276.91
2022-11-22T17:16:29.065Z,99286.44
2022-11-22T17:18:56.720Z,99285.59
2022-11-22T17:21:35.833Z,99293.34
2022-11-22T17:24:07.330Z,99292.47
2022-11-22T17:26:35.673Z,99300.16
2022-11-22T17:29:03.242Z,99292.38
2022-11-22T17:31:31.128Z,99305.25
2022-11-22T17:33:59.933Z,99290.63
2022-11-22T17:36:27.507Z,99300.97
2022-11-22T17:38:55.281Z,99297.44
2022-11-22T17:41:23.099Z,99302.56
2022-11-22T17:43:51.607Z,99299.13
2022-11-22T17:46:20.228Z,99299.16
2022-11-22T17:49:00.092Z,99295.81
2022-11-22T17:51:29.135Z,99301.06
2022-11-22T17:53:58.153Z,99302.00
2022-11-22T17:56:27.074Z,99301.19
2022-11-22T17:58:54.541Z,99305.56
2022-11-22T18:01:23.982Z,99308.94
2022-11-22T18:03:52.043Z,99308.09
2022-11-22T18:06:21.746Z,99307.28
2022-11-22T18:08:49.521Z,99303.03
2022-11-22T18:11:17.411Z,99305.59
2022-11-22T18:13:45.371Z,99308.28
2022-11-22T18:16:15.738Z,99313.47
2022-11-22T18:18:59.541Z,99298.88
2022-11-22T18:21:30.227Z,99301.47
2022-11-22T18:24:00.162Z,99304.03
2022-11-22T18:26:39.275Z,99313.53
2022-11-22T18:31:55.860Z,99315.28
2022-11-22T18:34:24.357Z,99311.78
2022-11-22T18:36:55.828Z,99308.28
2022-11-22T18:39:25.489Z,99325.44
2022-11-22T18:41:53.309Z,99313.38
2022-11-22T18:44:20.986Z,99321.97
2022-11-22T18:46:48.753Z,99322.06
2022-11-22T18:49:16.316Z,99322.09
2022-11-22T18:51:43.965Z,99320.53
2022-11-22T18:54:11.588Z,99327.41
2022-11-22T18:56:40.549Z,99319.56
2022-11-22T18:59:12.621Z,99325.56
2022-11-22T19:01:41.029Z,99323.81
2022-11-22T19:04:08.941Z,99323.78
2022-11-22T19:06:36.484Z,99326.28
2022-11-22T19:09:04.621Z,99325.34
2022-11-22T19:11:32.786Z,99337.34
2022-11-22T19:14:00.715Z,99342.44
2022-11-22T19:16:30.214Z,99344.97
2022-11-22T19:18:58.784Z,99347.44
2022-11-22T19:21:28.328Z,99350.81
2022-11-22T19:23:57.094Z,99343.88
2022-11-22T19:26:26.982Z,99349.91
2022-11-22T19:28:57.647Z,99344.59
2022-11-22T19:31:28.969Z,99341.13
2022-11-22T19:33:57.135Z,99335.00
2022-11-22T19:36:32.214Z,99336.75
2022-11-22T19:39:02.243Z,99343.59
2022-11-22T19:41:30.862Z,99338.44
2022-11-22T19:43:58.422Z,99347.03
2022-11-22T19:46:26.517Z,99353.94
2022-11-22T19:48:55.551Z,99350.50
2022-11-22T19:51:24.129Z,99340.19
2022-11-22T19:53:58.681Z,99346.97
2022-11-22T19:56:30.111Z,99349.59
2022-11-22T19:58:59.373Z,99353.97
2022-11-22T20:01:29.261Z,99346.22
2022-11-22T20:04:05.853Z,99352.25
2022-11-22T20:06:34.905Z,99356.56
2022-11-22T20:09:20.167Z,99359.09
2022-11-22T20:11:47.674Z,99355.63
2022-11-22T20:14:15.203Z,99361.66
2022-11-22T20:16:42.893Z,99365.97
2022-11-22T20:19:12.239Z,99370.28
2022-11-22T20:21:40.529Z,99360.75
2022-11-22T20:24:08.490Z,99365.97
2022-11-22T20:26:36.461Z,99375.38
2022-11-22T20:29:07.289Z,99371.91
2022-11-22T20:31:36.773Z,99373.59
2022-11-22T20:34:04.939Z,99377.03
2022-11-22T20:36:34.539Z,99370.22
2022-11-22T20:39:08.384Z,99377.81
2022-11-22T20:41:37.428Z,99374.44
2022-11-22T20:44:05.117Z,99368.38
2022-11-22T20:46:32.605Z,99369.16
2022-11-22T20:49:00.017Z,99383.81
2022-11-22T20:51:29.030Z,99388.91
2022-11-22T20:53:57.966Z,99391.50
2022-11-22T20:56:26.172Z,99382.81
2022-11-22T20:58:54.174Z,99382.88
2022-11-22T21:01:25.382Z,99383.72
2022-11-22T21:03:54.410Z,99386.22
2022-11-22T21:06:24.061Z,99390.56
2022-11-22T21:08:52.045Z,99391.38
2022-11-22T21:11:22.012Z,99395.66
2022-11-22T21:13:50.365Z,99398.19
2022-11-22T21:16:24.636Z,99399.94
2022-11-22T21:18:57.558Z,99393.09
2022-11-22T21:21:26.353Z,99402.53
2022-11-22T21:23:56.057Z,99406.94
2022-11-22T21:26:25.156Z,99412.09
2022-11-22T21:28:53.769Z,99403.44
2022-11-22T21:31:22.859Z,99409.41
2022-11-22T21:33:50.764Z,99415.38
2022-11-22T21:36:19.236Z,99419.66
2022-11-22T21:38:46.833Z,99411.91
2022-11-22T21:44:08.065Z,99425.66
2022-11-22T21:46:35.604Z,99412.78
2022-11-22T21:49:03.138Z,99425.72
2022-11-22T21:51:31.825Z,99423.91
2022-11-22T21:54:00.262Z,99440.22
2022-11-22T21:56:28.382Z,99432.56
2022-11-22T21:58:55.918Z,99444.63
2022-11-22T22:01:24.401Z,99441.09
2022-11-22T22:03:52.507Z,99442.84
2022-11-22T22:06:20.304Z,99439.41
2022-11-22T22:08:47.857Z,99445.38
2022-11-22T22:11:15.665Z,99442.78
2022-11-22T22:13:43.207Z,99442.78
2022-11-22T22:16:15.675Z,99437.63
2022-11-22T22:18:43.649Z,99439.34
2022-11-22T22:21:13.633Z,99446.97
2022-11-22T22:23:43.248Z,99440.16
2022-11-22T22:26:16.157Z,99440.16
2022-11-22T22:28:45.006Z,99453.84
2022-11-22T22:31:23.653Z,99452.94
2022-11-22T22:33:53.927Z,99449.53
2022-11-22T22:36:22.628Z,99452.94
2022-11-22T22:38:50.790Z,99452.13
2022-11-22T22:41:18.968Z,99451.28
2022-11-22T22:43:49.156Z,99458.19
2022-11-22T22:46:22.277Z,99461.59
2022-11-22T22:48:51.993Z,99463.25
2022-11-22T22:51:27.577Z,99456.44
2022-11-22T22:54:00.550Z,99465.75
2022-11-22T22:56:30.437Z,99473.53
2022-11-22T22:59:00.974Z,99476.97
2022-11-22T23:01:31.200Z,99466.63
2022-11-22T23:04:00.797Z,99467.47
2022-11-22T23:06:34.402Z,99485.53
2022-11-22T23:09:03.514Z,99473.41
2022-11-22T23:11:50.839Z,99472.56
2022-11-22T23:14:21.353Z,99479.44
2022-11-22T23:16:53.182Z,99489.78
2022-11-22T23:19:24.036Z,99488.91
2022-11-22T23:21:51.684Z,99483.72
2022-11-22T23:24:19.222Z,99495.72
2022-11-22T23:26:46.863Z,99491.47
2022-11-22T23:29:14.695Z,99499.22
2022-11-22T23:31:42.314Z,99494.03
2022-11-22T23:34:12.092Z,99487.19
2022-11-22T23:36:41.233Z,99497.50
2022-11-22T23:39:09.730Z,99486.28
2022-11-22T23:41:37.269Z,99488.91
2022-11-22T23:44:05.099Z,99487.06
2022-11-22T23:46:32.937Z,99492.28
2022-11-22T23:49:02.215Z,99499.22
2022-11-22T23:51:30.985Z,99491.44
2022-11-22T23:54:00.946Z,99493.16
2022-11-22T23:56:30.478Z,99501.00
2022-11-22T23:59:02.109Z,99496.72
